Allons, Tennessee
Current Conditions -  °F | °C
As of 2:55 PM on Sunday 23 Nov 2014 (Local Time) from KSRB Reporting Station
Broken Clouds Broken Clouds  
Wind Chill: 57°   Ceiling: 4600
Heat Index: 57°   Visibility: 10mi
Dew Point: 55°   Wind: 12mph
Humidity: 94%   Direction: 160°SSE
Pressure: 29.54"   Gusts: NA
Location:  36.44°N, 85.34°W
Report Text: KSRB 232055Z AUTO 16010KT 10SM FEW021 SCT036 BKN046 14/13 A2954 RMK
Loading
Personal Weather Stations






























Interactive Weather Map New forecast layout! Learn more

10-Day Weather Forecast

Advertisements
Track Severe Weather on mobile